KCQF

H L Sonny Callahan Airport

Fairhope, Alabama, USA
METAR KCQF 201055Z AUTO 33011G19KT 10SM OVC022 03/00 A3002 RMK AO2
Observed Flight Rules
Jan-20 @ 10:55 UTC (7 minutes ago) Marginal Visual Flight Rules
Wind Visibility Clouds
330° at 11 knots
 Gusting to 19 knots
10 miles
  • Overcast at 2,200' AGL
Temperatures Readings
Current 3°C / 37°F
Dewpoint 0°C / 32°F
Humidity 81%
Altimeter 30.02" Hg
Pressure 1016.62 hPa
Elevation 28
METAR KCQF 201055Z AUTO 33011G19KT 10SM OVC022 03/00 A3002 RMK AO2
Observed Flight Rules
Jan-20 @ 10:55 UTC
(7 minutes ago)
MVFR
Wind Visibility
330° at 11 knots
 Gusting to 19 knots
10 miles
Clouds
  • Overcast at 2,200' AGL
Temperature Dewpoint
3°C / 37°F 0°C / 32°F
Humidity Altimeter Pressure
81% 30.02" Hg 1016.62 hPa